sensor_id;sensor_type;location;lat;lon;timestamp;P1;durP1;ratioP1;P2;durP2;ratioP2
2784;SDS011;57944;48.722;9.316;2022-08-19T00:01:04;25.50;;;20.60;;
2784;SDS011;57944;48.722;9.316;2022-08-19T00:03:34;33.20;;;20.37;;
2784;SDS011;57944;48.722;9.316;2022-08-19T00:06:04;26.30;;;19.50;;
2784;SDS011;57944;48.722;9.316;2022-08-19T00:08:36;29.90;;;22.50;;
2784;SDS011;57944;48.722;9.316;2022-08-19T00:11:08;31.10;;;23.17;;
2784;SDS011;57944;48.722;9.316;2022-08-19T00:13:53;26.40;;;22.07;;
2784;SDS011;57944;48.722;9.316;2022-08-19T00:16:24;24.23;;;20.30;;
2784;SDS011;57944;48.722;9.316;2022-08-19T00:18:55;29.50;;;21.30;;
2784;SDS011;57944;48.722;9.316;2022-08-19T00:21:25;29.13;;;21.50;;
2784;SDS011;57944;48.722;9.316;2022-08-19T00:23:56;29.33;;;22.40;;
2784;SDS011;57944;48.722;9.316;2022-08-19T00:26:27;28.63;;;22.70;;
2784;SDS011;57944;48.722;9.316;2022-08-19T00:29:00;28.70;;;23.00;;
2784;SDS011;57944;48.722;9.316;2022-08-19T00:31:30;29.27;;;23.47;;
2784;SDS011;57944;48.722;9.316;2022-08-19T00:34:01;34.53;;;22.70;;
2784;SDS011;57944;48.722;9.316;2022-08-19T00:36:32;28.43;;;22.20;;
2784;SDS011;57944;48.722;9.316;2022-08-19T00:39:03;28.63;;;22.57;;
2784;SDS011;57944;48.722;9.316;2022-08-19T00:41:33;33.03;;;23.63;;
2784;SDS011;57944;48.722;9.316;2022-08-19T00:44:08;30.50;;;22.47;;
2784;SDS011;57944;48.722;9.316;2022-08-19T00:46:43;29.10;;;22.87;;
2784;SDS011;57944;48.722;9.316;2022-08-19T00:49:25;31.73;;;24.03;;
2784;SDS011;57944;48.722;9.316;2022-08-19T00:52:03;31.13;;;23.87;;
2784;SDS011;57944;48.722;9.316;2022-08-19T00:54:39;30.40;;;23.33;;
2784;SDS011;57944;48.722;9.316;2022-08-19T00:57:16;34.20;;;23.40;;
2784;SDS011;57944;48.722;9.316;2022-08-19T00:59:54;30.97;;;22.10;;
2784;SDS011;57944;48.722;9.316;2022-08-19T01:02:29;30.00;;;22.67;;
2784;SDS011;57944;48.722;9.316;2022-08-19T01:05:02;31.60;;;22.70;;
2784;SDS011;57944;48.722;9.316;2022-08-19T01:07:38;32.63;;;22.97;;
2784;SDS011;57944;48.722;9.316;2022-08-19T01:10:13;33.53;;;23.13;;
2784;SDS011;57944;48.722;9.316;2022-08-19T01:12:48;31.97;;;24.53;;
2784;SDS011;57944;48.722;9.316;2022-08-19T01:15:23;35.80;;;23.87;;
2784;SDS011;57944;48.722;9.316;2022-08-19T01:18:01;32.20;;;24.30;;
2784;SDS011;57944;48.722;9.316;2022-08-19T01:20:37;37.80;;;23.60;;
2784;SDS011;57944;48.722;9.316;2022-08-19T01:23:11;33.20;;;22.60;;
2784;SDS011;57944;48.722;9.316;2022-08-19T01:25:43;28.20;;;21.80;;
2784;SDS011;57944;48.722;9.316;2022-08-19T01:28:19;29.03;;;22.90;;
2784;SDS011;57944;48.722;9.316;2022-08-19T01:31:06;27.63;;;22.40;;
2784;SDS011;57944;48.722;9.316;2022-08-19T01:33:54;26.90;;;20.53;;
2784;SDS011;57944;48.722;9.316;2022-08-19T01:36:27;31.33;;;22.13;;
2784;SDS011;57944;48.722;9.316;2022-08-19T01:39:04;30.80;;;23.20;;
2784;SDS011;57944;48.722;9.316;2022-08-19T01:41:38;26.97;;;21.80;;
2784;SDS011;57944;48.722;9.316;2022-08-19T01:44:09;25.67;;;20.17;;
2784;SDS011;57944;48.722;9.316;2022-08-19T01:46:45;29.97;;;20.70;;
2784;SDS011;57944;48.722;9.316;2022-08-19T01:49:18;25.00;;;20.07;;
2784;SDS011;57944;48.722;9.316;2022-08-19T01:51:51;28.60;;;22.40;;
2784;SDS011;57944;48.722;9.316;2022-08-19T01:54:26;25.67;;;20.10;;
2784;SDS011;57944;48.722;9.316;2022-08-19T01:56:58;33.57;;;20.73;;
2784;SDS011;57944;48.722;9.316;2022-08-19T01:59:32;32.17;;;21.23;;
2784;SDS011;57944;48.722;9.316;2022-08-19T02:02:04;29.63;;;22.30;;
2784;SDS011;57944;48.722;9.316;2022-08-19T02:04:36;27.40;;;21.80;;
2784;SDS011;57944;48.722;9.316;2022-08-19T02:07:07;27.73;;;20.43;;
2784;SDS011;57944;48.722;9.316;2022-08-19T02:09:40;26.23;;;20.10;;
2784;SDS011;57944;48.722;9.316;2022-08-19T02:12:10;26.87;;;20.50;;
2784;SDS011;57944;48.722;9.316;2022-08-19T02:14:40;27.73;;;20.57;;
2784;SDS011;57944;48.722;9.316;2022-08-19T02:17:10;26.03;;;21.17;;
2784;SDS011;57944;48.722;9.316;2022-08-19T02:19:40;29.30;;;22.50;;
2784;SDS011;57944;48.722;9.316;2022-08-19T02:22:10;25.47;;;20.27;;
2784;SDS011;57944;48.722;9.316;2022-08-19T02:24:43;29.30;;;23.10;;
2784;SDS011;57944;48.722;9.316;2022-08-19T02:27:43;29.70;;;21.03;;
2784;SDS011;57944;48.722;9.316;2022-08-19T02:30:16;27.10;;;20.60;;
2784;SDS011;57944;48.722;9.316;2022-08-19T02:32:47;31.87;;;21.93;;
2784;SDS011;57944;48.722;9.316;2022-08-19T02:35:17;28.90;;;22.30;;
2784;SDS011;57944;48.722;9.316;2022-08-19T02:37:48;29.23;;;20.77;;
2784;SDS011;57944;48.722;9.316;2022-08-19T02:40:31;35.20;;;23.53;;
2784;SDS011;57944;48.722;9.316;2022-08-19T02:43:05;32.27;;;23.07;;
2784;SDS011;57944;48.722;9.316;2022-08-19T02:45:38;35.80;;;24.00;;
2784;SDS011;57944;48.722;9.316;2022-08-19T02:48:08;34.17;;;23.70;;
2784;SDS011;57944;48.722;9.316;2022-08-19T02:50:47;30.60;;;22.30;;
2784;SDS011;57944;48.722;9.316;2022-08-19T02:53:22;31.77;;;23.07;;
2784;SDS011;57944;48.722;9.316;2022-08-19T02:55:55;32.17;;;22.13;;
2784;SDS011;57944;48.722;9.316;2022-08-19T02:58:28;32.30;;;23.67;;
2784;SDS011;57944;48.722;9.316;2022-08-19T03:00:58;34.20;;;22.60;;
2784;SDS011;57944;48.722;9.316;2022-08-19T03:03:28;35.00;;;24.73;;
2784;SDS011;57944;48.722;9.316;2022-08-19T03:06:02;28.00;;;22.73;;
2784;SDS011;57944;48.722;9.316;2022-08-19T03:08:36;31.27;;;22.73;;
2784;SDS011;57944;48.722;9.316;2022-08-19T03:11:12;35.50;;;24.87;;
2784;SDS011;57944;48.722;9.316;2022-08-19T03:13:46;35.87;;;23.83;;
2784;SDS011;57944;48.722;9.316;2022-08-19T03:16:18;32.00;;;23.37;;
2784;SDS011;57944;48.722;9.316;2022-08-19T03:18:52;39.20;;;25.67;;
2784;SDS011;57944;48.722;9.316;2022-08-19T03:21:27;30.77;;;25.20;;
2784;SDS011;57944;48.722;9.316;2022-08-19T03:24:00;35.00;;;24.33;;
2784;SDS011;57944;48.722;9.316;2022-08-19T03:26:34;34.13;;;23.40;;
2784;SDS011;57944;48.722;9.316;2022-08-19T03:29:12;33.23;;;24.60;;
2784;SDS011;57944;48.722;9.316;2022-08-19T03:31:56;35.90;;;25.87;;
2784;SDS011;57944;48.722;9.316;2022-08-19T03:34:28;34.07;;;26.43;;
2784;SDS011;57944;48.722;9.316;2022-08-19T03:37:03;37.57;;;27.47;;
2784;SDS011;57944;48.722;9.316;2022-08-19T03:39:36;36.20;;;26.17;;
2784;SDS011;57944;48.722;9.316;2022-08-19T03:42:09;36.80;;;24.40;;
2784;SDS011;57944;48.722;9.316;2022-08-19T03:45:01;38.30;;;27.73;;
2784;SDS011;57944;48.722;9.316;2022-08-19T03:47:33;38.50;;;27.07;;
2784;SDS011;57944;48.722;9.316;2022-08-19T03:50:04;41.57;;;28.23;;
2784;SDS011;57944;48.722;9.316;2022-08-19T03:52:35;35.80;;;26.90;;
2784;SDS011;57944;48.722;9.316;2022-08-19T03:55:10;40.40;;;27.47;;
2784;SDS011;57944;48.722;9.316;2022-08-19T03:57:40;48.53;;;28.10;;
2784;SDS011;57944;48.722;9.316;2022-08-19T04:00:14;41.00;;;30.30;;
2784;SDS011;57944;48.722;9.316;2022-08-19T04:02:45;41.03;;;27.23;;
2784;SDS011;57944;48.722;9.316;2022-08-19T04:05:25;44.57;;;28.97;;
2784;SDS011;57944;48.722;9.316;2022-08-19T04:07:57;40.47;;;28.00;;
2784;SDS011;57944;48.722;9.316;2022-08-19T04:10:27;42.53;;;28.77;;
2784;SDS011;57944;48.722;9.316;2022-08-19T04:12:57;41.20;;;28.77;;
2784;SDS011;57944;48.722;9.316;2022-08-19T04:15:30;40.53;;;28.97;;
2784;SDS011;57944;48.722;9.316;2022-08-19T04:18:05;38.73;;;27.80;;
2784;SDS011;57944;48.722;9.316;2022-08-19T04:20:40;43.77;;;31.00;;
2784;SDS011;57944;48.722;9.316;2022-08-19T04:23:13;42.20;;;28.33;;
2784;SDS011;57944;48.722;9.316;2022-08-19T04:25:44;38.30;;;29.47;;
2784;SDS011;57944;48.722;9.316;2022-08-19T04:28:14;39.97;;;28.17;;
2784;SDS011;57944;48.722;9.316;2022-08-19T04:30:48;46.93;;;30.63;;
2784;SDS011;57944;48.722;9.316;2022-08-19T04:33:22;41.50;;;27.83;;
2784;SDS011;57944;48.722;9.316;2022-08-19T04:35:55;46.20;;;29.97;;
2784;SDS011;57944;48.722;9.316;2022-08-19T04:38:26;44.43;;;30.13;;
2784;SDS011;57944;48.722;9.316;2022-08-19T04:40:56;38.83;;;29.00;;
2784;SDS011;57944;48.722;9.316;2022-08-19T04:43:38;43.20;;;30.97;;
2784;SDS011;57944;48.722;9.316;2022-08-19T04:46:14;43.07;;;29.63;;
2784;SDS011;57944;48.722;9.316;2022-08-19T04:49:06;46.37;;;29.00;;
2784;SDS011;57944;48.722;9.316;2022-08-19T04:51:39;45.40;;;32.60;;
2784;SDS011;57944;48.722;9.316;2022-08-19T04:54:11;43.43;;;31.17;;
2784;SDS011;57944;48.722;9.316;2022-08-19T04:57:02;43.47;;;30.90;;
2784;SDS011;57944;48.722;9.316;2022-08-19T04:59:33;38.17;;;29.30;;
2784;SDS011;57944;48.722;9.316;2022-08-19T05:02:07;39.80;;;30.03;;
2784;SDS011;57944;48.722;9.316;2022-08-19T05:04:38;43.60;;;32.10;;
2784;SDS011;57944;48.722;9.316;2022-08-19T05:07:08;46.40;;;29.93;;
2784;SDS011;57944;48.722;9.316;2022-08-19T05:09:38;39.83;;;31.00;;
2784;SDS011;57944;48.722;9.316;2022-08-19T05:12:24;46.30;;;34.00;;
2784;SDS011;57944;48.722;9.316;2022-08-19T05:14:55;36.33;;;28.90;;
2784;SDS011;57944;48.722;9.316;2022-08-19T05:17:28;36.00;;;29.50;;
2784;SDS011;57944;48.722;9.316;2022-08-19T05:20:04;42.37;;;29.90;;
2784;SDS011;57944;48.722;9.316;2022-08-19T05:22:49;42.03;;;30.60;;
2784;SDS011;57944;48.722;9.316;2022-08-19T05:25:19;42.77;;;29.57;;
2784;SDS011;57944;48.722;9.316;2022-08-19T05:27:50;42.70;;;29.30;;
2784;SDS011;57944;48.722;9.316;2022-08-19T05:30:21;41.83;;;31.07;;
2784;SDS011;57944;48.722;9.316;2022-08-19T05:33:13;39.77;;;29.97;;
2784;SDS011;57944;48.722;9.316;2022-08-19T05:35:43;43.60;;;29.33;;
2784;SDS011;57944;48.722;9.316;2022-08-19T05:38:15;43.33;;;27.33;;
2784;SDS011;57944;48.722;9.316;2022-08-19T05:40:46;42.47;;;31.07;;
2784;SDS011;57944;48.722;9.316;2022-08-19T05:43:16;39.30;;;29.40;;
2784;SDS011;57944;48.722;9.316;2022-08-19T05:45:46;45.77;;;29.33;;
2784;SDS011;57944;48.722;9.316;2022-08-19T05:48:19;36.17;;;28.07;;
2784;SDS011;57944;48.722;9.316;2022-08-19T05:50:49;41.80;;;32.10;;
2784;SDS011;57944;48.722;9.316;2022-08-19T05:53:19;41.97;;;30.70;;
2784;SDS011;57944;48.722;9.316;2022-08-19T05:55:49;40.67;;;29.30;;
2784;SDS011;57944;48.722;9.316;2022-08-19T05:58:21;44.50;;;29.03;;
2784;SDS011;57944;48.722;9.316;2022-08-19T06:00:53;37.83;;;28.23;;
2784;SDS011;57944;48.722;9.316;2022-08-19T06:03:26;42.97;;;31.20;;
2784;SDS011;57944;48.722;9.316;2022-08-19T06:05:56;40.03;;;29.13;;
2784;SDS011;57944;48.722;9.316;2022-08-19T06:08:29;37.53;;;28.83;;
2784;SDS011;57944;48.722;9.316;2022-08-19T06:11:13;44.47;;;30.87;;
2784;SDS011;57944;48.722;9.316;2022-08-19T06:13:47;48.80;;;30.87;;
2784;SDS011;57944;48.722;9.316;2022-08-19T06:16:25;43.10;;;30.07;;
2784;SDS011;57944;48.722;9.316;2022-08-19T06:19:03;44.17;;;31.70;;
2784;SDS011;57944;48.722;9.316;2022-08-19T06:21:37;43.47;;;30.33;;
2784;SDS011;57944;48.722;9.316;2022-08-19T06:24:11;45.30;;;30.80;;
2784;SDS011;57944;48.722;9.316;2022-08-19T06:26:45;44.13;;;31.90;;
2784;SDS011;57944;48.722;9.316;2022-08-19T06:29:20;39.50;;;29.93;;
2784;SDS011;57944;48.722;9.316;2022-08-19T06:31:54;45.73;;;30.90;;
2784;SDS011;57944;48.722;9.316;2022-08-19T06:34:30;42.07;;;31.07;;
2784;SDS011;57944;48.722;9.316;2022-08-19T06:37:02;42.50;;;31.20;;
2784;SDS011;57944;48.722;9.316;2022-08-19T06:39:33;46.20;;;33.57;;
2784;SDS011;57944;48.722;9.316;2022-08-19T06:42:08;47.53;;;31.27;;
2784;SDS011;57944;48.722;9.316;2022-08-19T06:44:44;41.30;;;30.73;;
2784;SDS011;57944;48.722;9.316;2022-08-19T06:47:19;49.10;;;31.27;;
2784;SDS011;57944;48.722;9.316;2022-08-19T06:49:57;45.17;;;32.93;;
2784;SDS011;57944;48.722;9.316;2022-08-19T06:52:31;52.67;;;34.43;;
2784;SDS011;57944;48.722;9.316;2022-08-19T06:55:04;54.17;;;35.40;;
2784;SDS011;57944;48.722;9.316;2022-08-19T06:57:36;45.63;;;32.80;;
2784;SDS011;57944;48.722;9.316;2022-08-19T07:00:09;48.47;;;35.40;;
2784;SDS011;57944;48.722;9.316;2022-08-19T07:02:40;51.00;;;35.30;;
2784;SDS011;57944;48.722;9.316;2022-08-19T07:05:23;53.47;;;35.80;;
2784;SDS011;57944;48.722;9.316;2022-08-19T07:07:53;51.37;;;35.73;;
2784;SDS011;57944;48.722;9.316;2022-08-19T07:10:30;50.27;;;37.10;;
2784;SDS011;57944;48.722;9.316;2022-08-19T07:13:01;57.27;;;37.93;;
2784;SDS011;57944;48.722;9.316;2022-08-19T07:15:32;58.23;;;40.30;;
2784;SDS011;57944;48.722;9.316;2022-08-19T07:18:05;57.60;;;39.20;;
2784;SDS011;57944;48.722;9.316;2022-08-19T07:20:40;60.77;;;42.20;;
2784;SDS011;57944;48.722;9.316;2022-08-19T07:23:10;65.00;;;44.07;;
2784;SDS011;57944;48.722;9.316;2022-08-19T07:25:42;79.57;;;45.17;;
2784;SDS011;57944;48.722;9.316;2022-08-19T07:28:18;76.40;;;44.07;;
2784;SDS011;57944;48.722;9.316;2022-08-19T07:30:52;67.93;;;43.40;;
2784;SDS011;57944;48.722;9.316;2022-08-19T07:33:23;70.33;;;45.00;;
2784;SDS011;57944;48.722;9.316;2022-08-19T07:35:55;74.20;;;46.30;;
2784;SDS011;57944;48.722;9.316;2022-08-19T07:38:26;70.07;;;45.47;;
2784;SDS011;57944;48.722;9.316;2022-08-19T07:40:56;68.20;;;42.93;;
2784;SDS011;57944;48.722;9.316;2022-08-19T07:43:26;75.73;;;45.60;;
2784;SDS011;57944;48.722;9.316;2022-08-19T07:46:00;71.77;;;43.83;;
2784;SDS011;57944;48.722;9.316;2022-08-19T07:48:30;75.80;;;45.20;;
2784;SDS011;57944;48.722;9.316;2022-08-19T07:51:04;66.93;;;45.37;;
2784;SDS011;57944;48.722;9.316;2022-08-19T07:53:39;63.83;;;42.83;;
2784;SDS011;57944;48.722;9.316;2022-08-19T07:56:11;66.20;;;44.27;;
2784;SDS011;57944;48.722;9.316;2022-08-19T07:58:44;70.03;;;44.43;;
2784;SDS011;57944;48.722;9.316;2022-08-19T08:01:18;67.90;;;45.07;;
2784;SDS011;57944;48.722;9.316;2022-08-19T08:03:52;62.60;;;42.73;;
2784;SDS011;57944;48.722;9.316;2022-08-19T08:06:40;68.73;;;42.90;;
2784;SDS011;57944;48.722;9.316;2022-08-19T08:09:24;66.67;;;43.77;;
2784;SDS011;57944;48.722;9.316;2022-08-19T08:12:05;71.10;;;44.30;;
2784;SDS011;57944;48.722;9.316;2022-08-19T08:14:59;56.40;;;39.60;;
2784;SDS011;57944;48.722;9.316;2022-08-19T08:17:38;72.80;;;43.57;;
2784;SDS011;57944;48.722;9.316;2022-08-19T08:20:17;69.60;;;43.30;;
2784;SDS011;57944;48.722;9.316;2022-08-19T08:22:50;71.70;;;45.53;;
2784;SDS011;57944;48.722;9.316;2022-08-19T08:25:33;65.83;;;43.50;;
2784;SDS011;57944;48.722;9.316;2022-08-19T08:28:05;74.50;;;44.37;;
2784;SDS011;57944;48.722;9.316;2022-08-19T08:30:42;64.10;;;42.47;;
2784;SDS011;57944;48.722;9.316;2022-08-19T08:33:17;67.53;;;42.70;;
2784;SDS011;57944;48.722;9.316;2022-08-19T08:36:00;58.90;;;41.13;;
2784;SDS011;57944;48.722;9.316;2022-08-19T08:38:33;65.80;;;41.97;;
2784;SDS011;57944;48.722;9.316;2022-08-19T08:41:09;65.83;;;42.43;;
2784;SDS011;57944;48.722;9.316;2022-08-19T08:43:52;59.80;;;40.13;;
2784;SDS011;57944;48.722;9.316;2022-08-19T08:46:25;68.57;;;44.17;;
2784;SDS011;57944;48.722;9.316;2022-08-19T08:49:12;65.10;;;41.70;;
2784;SDS011;57944;48.722;9.316;2022-08-19T08:51:59;58.63;;;40.20;;
2784;SDS011;57944;48.722;9.316;2022-08-19T08:54:37;56.90;;;40.47;;
2784;SDS011;57944;48.722;9.316;2022-08-19T08:57:23;59.70;;;38.87;;
2784;SDS011;57944;48.722;9.316;2022-08-19T09:00:09;54.70;;;39.90;;
2784;SDS011;57944;48.722;9.316;2022-08-19T09:02:47;54.80;;;38.60;;
2784;SDS011;57944;48.722;9.316;2022-08-19T09:05:17;50.97;;;35.83;;
2784;SDS011;57944;48.722;9.316;2022-08-19T09:07:53;49.97;;;37.20;;
2784;SDS011;57944;48.722;9.316;2022-08-19T09:10:37;45.87;;;34.47;;
2784;SDS011;57944;48.722;9.316;2022-08-19T09:13:21;52.30;;;32.80;;
2784;SDS011;57944;48.722;9.316;2022-08-19T09:16:07;49.97;;;34.80;;
2784;SDS011;57944;48.722;9.316;2022-08-19T09:18:41;51.00;;;32.80;;
2784;SDS011;57944;48.722;9.316;2022-08-19T09:21:13;43.83;;;31.10;;
2784;SDS011;57944;48.722;9.316;2022-08-19T09:23:51;48.83;;;31.10;;
2784;SDS011;57944;48.722;9.316;2022-08-19T09:26:25;49.47;;;31.57;;
2784;SDS011;57944;48.722;9.316;2022-08-19T09:29:16;43.50;;;30.60;;
2784;SDS011;57944;48.722;9.316;2022-08-19T09:31:48;46.03;;;29.03;;
2784;SDS011;57944;48.722;9.316;2022-08-19T09:34:18;48.40;;;32.13;;
2784;SDS011;57944;48.722;9.316;2022-08-19T09:36:49;40.33;;;30.23;;
2784;SDS011;57944;48.722;9.316;2022-08-19T09:39:21;37.20;;;28.97;;
2784;SDS011;57944;48.722;9.316;2022-08-19T09:42:03;43.80;;;29.60;;
2784;SDS011;57944;48.722;9.316;2022-08-19T09:44:55;41.97;;;31.50;;
2784;SDS011;57944;48.722;9.316;2022-08-19T09:47:30;43.47;;;31.20;;
2784;SDS011;57944;48.722;9.316;2022-08-19T09:50:06;48.80;;;33.13;;
2784;SDS011;57944;48.722;9.316;2022-08-19T09:52:42;40.40;;;32.30;;
2784;SDS011;57944;48.722;9.316;2022-08-19T09:55:22;46.80;;;33.23;;
2784;SDS011;57944;48.722;9.316;2022-08-19T09:58:01;41.10;;;31.47;;
2784;SDS011;57944;48.722;9.316;2022-08-19T10:00:31;53.57;;;35.60;;
2784;SDS011;57944;48.722;9.316;2022-08-19T10:03:01;47.77;;;34.07;;
2784;SDS011;57944;48.722;9.316;2022-08-19T10:05:32;43.47;;;33.57;;
2784;SDS011;57944;48.722;9.316;2022-08-19T10:08:21;51.20;;;35.60;;
2784;SDS011;57944;48.722;9.316;2022-08-19T10:10:54;37.47;;;29.43;;
2784;SDS011;57944;48.722;9.316;2022-08-19T10:13:47;43.57;;;30.93;;
2784;SDS011;57944;48.722;9.316;2022-08-19T10:16:19;43.43;;;30.70;;
2784;SDS011;57944;48.722;9.316;2022-08-19T10:18:55;43.50;;;33.00;;
2784;SDS011;57944;48.722;9.316;2022-08-19T10:21:31;42.30;;;30.83;;
2784;SDS011;57944;48.722;9.316;2022-08-19T10:24:05;47.83;;;33.77;;
2784;SDS011;57944;48.722;9.316;2022-08-19T10:26:36;47.60;;;34.20;;
2784;SDS011;57944;48.722;9.316;2022-08-19T10:29:23;46.50;;;32.20;;
2784;SDS011;57944;48.722;9.316;2022-08-19T10:31:58;47.40;;;33.13;;
2784;SDS011;57944;48.722;9.316;2022-08-19T10:34:30;44.10;;;31.73;;
2784;SDS011;57944;48.722;9.316;2022-08-19T10:37:01;47.00;;;33.00;;
2784;SDS011;57944;48.722;9.316;2022-08-19T10:39:36;47.50;;;32.87;;
2784;SDS011;57944;48.722;9.316;2022-08-19T10:42:09;51.40;;;36.50;;
2784;SDS011;57944;48.722;9.316;2022-08-19T10:44:42;48.00;;;36.30;;
2784;SDS011;57944;48.722;9.316;2022-08-19T10:47:13;50.07;;;35.10;;
2784;SDS011;57944;48.722;9.316;2022-08-19T10:49:56;57.07;;;34.67;;
2784;SDS011;57944;48.722;9.316;2022-08-19T10:52:39;51.97;;;35.20;;
2784;SDS011;57944;48.722;9.316;2022-08-19T10:55:16;55.37;;;38.00;;
2784;SDS011;57944;48.722;9.316;2022-08-19T10:58:01;57.17;;;36.50;;
2784;SDS011;57944;48.722;9.316;2022-08-19T11:00:36;51.00;;;37.67;;
2784;SDS011;57944;48.722;9.316;2022-08-19T11:03:06;54.83;;;35.73;;
2784;SDS011;57944;48.722;9.316;2022-08-19T11:05:37;57.13;;;37.77;;
2784;SDS011;57944;48.722;9.316;2022-08-19T11:08:07;49.90;;;37.57;;
2784;SDS011;57944;48.722;9.316;2022-08-19T11:10:49;53.10;;;35.83;;
2784;SDS011;57944;48.722;9.316;2022-08-19T11:13:24;58.30;;;37.60;;
2784;SDS011;57944;48.722;9.316;2022-08-19T11:16:02;60.97;;;39.47;;
2784;SDS011;57944;48.722;9.316;2022-08-19T11:18:36;57.50;;;39.07;;
2784;SDS011;57944;48.722;9.316;2022-08-19T11:21:10;67.47;;;42.20;;
2784;SDS011;57944;48.722;9.316;2022-08-19T11:23:43;69.77;;;44.77;;
2784;SDS011;57944;48.722;9.316;2022-08-19T11:26:15;59.37;;;41.93;;
2784;SDS011;57944;48.722;9.316;2022-08-19T11:28:47;58.03;;;38.63;;
2784;SDS011;57944;48.722;9.316;2022-08-19T11:31:24;57.30;;;40.70;;
2784;SDS011;57944;48.722;9.316;2022-08-19T11:33:58;65.63;;;43.97;;
2784;SDS011;57944;48.722;9.316;2022-08-19T11:36:32;58.77;;;42.10;;
2784;SDS011;57944;48.722;9.316;2022-08-19T11:39:04;63.20;;;39.90;;
2784;SDS011;57944;48.722;9.316;2022-08-19T11:41:35;62.50;;;44.40;;
2784;SDS011;57944;48.722;9.316;2022-08-19T11:44:05;64.60;;;43.97;;
2784;SDS011;57944;48.722;9.316;2022-08-19T11:46:39;64.33;;;43.17;;
2784;SDS011;57944;48.722;9.316;2022-08-19T11:49:13;74.37;;;42.73;;
2784;SDS011;57944;48.722;9.316;2022-08-19T11:51:45;54.10;;;36.83;;
2784;SDS011;57944;48.722;9.316;2022-08-19T11:54:19;70.50;;;42.20;;
2784;SDS011;57944;48.722;9.316;2022-08-19T11:56:49;69.70;;;44.37;;
2784;SDS011;57944;48.722;9.316;2022-08-19T11:59:22;66.53;;;42.63;;
2784;SDS011;57944;48.722;9.316;2022-08-19T12:01:57;61.17;;;42.77;;
2784;SDS011;57944;48.722;9.316;2022-08-19T12:04:27;71.77;;;43.33;;
2784;SDS011;57944;48.722;9.316;2022-08-19T12:06:58;57.60;;;40.70;;
2784;SDS011;57944;48.722;9.316;2022-08-19T12:09:28;64.30;;;42.17;;
2784;SDS011;57944;48.722;9.316;2022-08-19T12:12:00;63.73;;;41.47;;
2784;SDS011;57944;48.722;9.316;2022-08-19T12:14:31;66.43;;;42.37;;
2784;SDS011;57944;48.722;9.316;2022-08-19T12:17:04;55.37;;;38.97;;
2784;SDS011;57944;48.722;9.316;2022-08-19T12:19:35;59.70;;;40.40;;
2784;SDS011;57944;48.722;9.316;2022-08-19T12:22:06;56.43;;;39.07;;
2784;SDS011;57944;48.722;9.316;2022-08-19T12:24:36;61.90;;;39.13;;
2784;SDS011;57944;48.722;9.316;2022-08-19T12:27:06;53.40;;;37.33;;
2784;SDS011;57944;48.722;9.316;2022-08-19T12:29:38;62.33;;;37.77;;
2784;SDS011;57944;48.722;9.316;2022-08-19T12:32:11;52.30;;;38.43;;
2784;SDS011;57944;48.722;9.316;2022-08-19T12:34:41;62.80;;;42.77;;
2784;SDS011;57944;48.722;9.316;2022-08-19T12:37:13;61.93;;;39.90;;
2784;SDS011;57944;48.722;9.316;2022-08-19T12:39:43;61.17;;;42.80;;
2784;SDS011;57944;48.722;9.316;2022-08-19T12:42:14;61.83;;;40.20;;
2784;SDS011;57944;48.722;9.316;2022-08-19T12:44:45;57.13;;;37.80;;
2784;SDS011;57944;48.722;9.316;2022-08-19T12:47:17;63.33;;;39.57;;
2784;SDS011;57944;48.722;9.316;2022-08-19T12:49:48;67.53;;;41.07;;
2784;SDS011;57944;48.722;9.316;2022-08-19T12:52:22;65.60;;;42.63;;
2784;SDS011;57944;48.722;9.316;2022-08-19T12:54:55;67.63;;;43.97;;
2784;SDS011;57944;48.722;9.316;2022-08-19T12:57:27;69.20;;;43.67;;
2784;SDS011;57944;48.722;9.316;2022-08-19T13:00:00;59.50;;;38.60;;
2784;SDS011;57944;48.722;9.316;2022-08-19T13:02:40;57.33;;;41.03;;
2784;SDS011;57944;48.722;9.316;2022-08-19T13:05:13;56.50;;;37.87;;
2784;SDS011;57944;48.722;9.316;2022-08-19T13:07:49;57.50;;;40.30;;
2784;SDS011;57944;48.722;9.316;2022-08-19T13:10:23;52.10;;;36.47;;
2784;SDS011;57944;48.722;9.316;2022-08-19T13:12:56;50.23;;;36.47;;
2784;SDS011;57944;48.722;9.316;2022-08-19T13:15:28;52.50;;;36.60;;
2784;SDS011;57944;48.722;9.316;2022-08-19T13:18:01;53.37;;;39.00;;
2784;SDS011;57944;48.722;9.316;2022-08-19T13:20:31;64.93;;;38.57;;
2784;SDS011;57944;48.722;9.316;2022-08-19T13:23:01;54.00;;;36.40;;
2784;SDS011;57944;48.722;9.316;2022-08-19T13:25:32;56.60;;;37.77;;
2784;SDS011;57944;48.722;9.316;2022-08-19T13:28:03;60.13;;;40.73;;
2784;SDS011;57944;48.722;9.316;2022-08-19T13:30:38;59.50;;;37.73;;
2784;SDS011;57944;48.722;9.316;2022-08-19T13:33:23;65.00;;;42.33;;
2784;SDS011;57944;48.722;9.316;2022-08-19T13:35:56;56.53;;;38.67;;
2784;SDS011;57944;48.722;9.316;2022-08-19T13:38:28;66.67;;;45.10;;
2784;SDS011;57944;48.722;9.316;2022-08-19T13:41:03;71.23;;;44.87;;
2784;SDS011;57944;48.722;9.316;2022-08-19T13:43:40;70.27;;;44.63;;
2784;SDS011;57944;48.722;9.316;2022-08-19T13:46:11;76.20;;;45.60;;
2784;SDS011;57944;48.722;9.316;2022-08-19T13:48:44;70.63;;;41.53;;
2784;SDS011;57944;48.722;9.316;2022-08-19T13:51:16;77.73;;;45.23;;
2784;SDS011;57944;48.722;9.316;2022-08-19T13:53:47;77.43;;;46.30;;
2784;SDS011;57944;48.722;9.316;2022-08-19T13:56:18;79.73;;;47.50;;
2784;SDS011;57944;48.722;9.316;2022-08-19T13:58:51;65.60;;;43.57;;
2784;SDS011;57944;48.722;9.316;2022-08-19T14:01:24;69.67;;;44.97;;
2784;SDS011;57944;48.722;9.316;2022-08-19T14:03:58;74.53;;;45.47;;
2784;SDS011;57944;48.722;9.316;2022-08-19T14:06:28;64.23;;;43.53;;
2784;SDS011;57944;48.722;9.316;2022-08-19T14:08:58;71.23;;;46.07;;
2784;SDS011;57944;48.722;9.316;2022-08-19T14:11:29;76.77;;;46.20;;
2784;SDS011;57944;48.722;9.316;2022-08-19T14:13:59;77.90;;;47.60;;
2784;SDS011;57944;48.722;9.316;2022-08-19T14:16:29;67.43;;;46.03;;
2784;SDS011;57944;48.722;9.316;2022-08-19T14:19:02;69.87;;;44.50;;
2784;SDS011;57944;48.722;9.316;2022-08-19T14:21:34;71.20;;;43.37;;
2784;SDS011;57944;48.722;9.316;2022-08-19T14:24:07;66.67;;;42.97;;
2784;SDS011;57944;48.722;9.316;2022-08-19T14:26:37;72.87;;;43.47;;
2784;SDS011;57944;48.722;9.316;2022-08-19T14:29:08;66.93;;;44.00;;
2784;SDS011;57944;48.722;9.316;2022-08-19T14:31:39;68.90;;;42.10;;
2784;SDS011;57944;48.722;9.316;2022-08-19T14:34:12;72.47;;;44.80;;
2784;SDS011;57944;48.722;9.316;2022-08-19T14:36:43;74.43;;;48.20;;
2784;SDS011;57944;48.722;9.316;2022-08-19T14:39:15;70.47;;;48.23;;
2784;SDS011;57944;48.722;9.316;2022-08-19T14:41:45;59.70;;;42.20;;
2784;SDS011;57944;48.722;9.316;2022-08-19T14:44:15;66.57;;;44.10;;
2784;SDS011;57944;48.722;9.316;2022-08-19T14:46:46;66.40;;;42.20;;
2784;SDS011;57944;48.722;9.316;2022-08-19T14:49:19;65.87;;;44.37;;
2784;SDS011;57944;48.722;9.316;2022-08-19T14:52:00;68.90;;;44.10;;
2784;SDS011;57944;48.722;9.316;2022-08-19T14:54:31;65.20;;;45.70;;
2784;SDS011;57944;48.722;9.316;2022-08-19T14:57:01;56.10;;;40.20;;
2784;SDS011;57944;48.722;9.316;2022-08-19T14:59:33;64.67;;;40.50;;
2784;SDS011;57944;48.722;9.316;2022-08-19T15:02:04;53.30;;;38.30;;
2784;SDS011;57944;48.722;9.316;2022-08-19T15:04:57;54.73;;;40.50;;
2784;SDS011;57944;48.722;9.316;2022-08-19T15:07:28;52.30;;;38.37;;
2784;SDS011;57944;48.722;9.316;2022-08-19T15:10:01;52.83;;;39.30;;
2784;SDS011;57944;48.722;9.316;2022-08-19T15:12:33;56.77;;;39.17;;
2784;SDS011;57944;48.722;9.316;2022-08-19T15:15:05;63.17;;;40.37;;